sensor_id;sensor_type;location;lat;lon;timestamp;temperature;humidity
1468;DHT22;727;48.892;9.544;2023-07-24T00:00:50;17.00;99.90
1468;DHT22;727;48.892;9.544;2023-07-24T00:03:16;17.00;99.90
1468;DHT22;727;48.892;9.544;2023-07-24T00:05:43;17.00;99.90
1468;DHT22;727;48.892;9.544;2023-07-24T00:08:10;17.00;99.90
1468;DHT22;727;48.892;9.544;2023-07-24T00:10:36;17.00;99.90
1468;DHT22;727;48.892;9.544;2023-07-24T00:13:05;17.00;99.90
1468;DHT22;727;48.892;9.544;2023-07-24T00:15:31;17.00;99.90
1468;DHT22;727;48.892;9.544;2023-07-24T00:17:58;17.00;99.90
1468;DHT22;727;48.892;9.544;2023-07-24T00:20:25;17.00;99.90
1468;DHT22;727;48.892;9.544;2023-07-24T00:22:52;17.10;99.90
1468;DHT22;727;48.892;9.544;2023-07-24T00:25:19;17.10;99.90
1468;DHT22;727;48.892;9.544;2023-07-24T00:27:46;17.10;99.90
1468;DHT22;727;48.892;9.544;2023-07-24T00:30:14;17.10;99.90
1468;DHT22;727;48.892;9.544;2023-07-24T00:32:41;17.10;99.90
1468;DHT22;727;48.892;9.544;2023-07-24T00:35:08;17.00;99.90
1468;DHT22;727;48.892;9.544;2023-07-24T00:37:34;17.00;99.90
1468;DHT22;727;48.892;9.544;2023-07-24T00:40:01;17.10;99.90
1468;DHT22;727;48.892;9.544;2023-07-24T00:42:28;17.00;99.90
1468;DHT22;727;48.892;9.544;2023-07-24T00:44:55;17.00;99.90
1468;DHT22;727;48.892;9.544;2023-07-24T00:47:25;17.00;99.90
1468;DHT22;727;48.892;9.544;2023-07-24T00:49:52;17.00;99.90
1468;DHT22;727;48.892;9.544;2023-07-24T00:52:20;16.90;99.90
1468;DHT22;727;48.892;9.544;2023-07-24T00:54:47;16.90;99.90
1468;DHT22;727;48.892;9.544;2023-07-24T00:57:15;16.90;99.90
1468;DHT22;727;48.892;9.544;2023-07-24T00:59:42;16.90;99.90
1468;DHT22;727;48.892;9.544;2023-07-24T01:02:11;16.80;99.90
1468;DHT22;727;48.892;9.544;2023-07-24T01:04:39;16.80;99.90
1468;DHT22;727;48.892;9.544;2023-07-24T01:07:06;16.80;99.90
1468;DHT22;727;48.892;9.544;2023-07-24T01:09:33;16.80;99.90
1468;DHT22;727;48.892;9.544;2023-07-24T01:12:04;16.80;99.90
1468;DHT22;727;48.892;9.544;2023-07-24T01:14:38;16.80;99.90
1468;DHT22;727;48.892;9.544;2023-07-24T01:17:10;16.80;99.90
1468;DHT22;727;48.892;9.544;2023-07-24T01:19:43;16.70;99.90
1468;DHT22;727;48.892;9.544;2023-07-24T01:22:20;16.70;99.90
1468;DHT22;727;48.892;9.544;2023-07-24T01:25:00;16.60;99.90
1468;DHT22;727;48.892;9.544;2023-07-24T01:27:32;16.50;99.90
1468;DHT22;727;48.892;9.544;2023-07-24T01:29:58;16.50;99.90
1468;DHT22;727;48.892;9.544;2023-07-24T01:32:25;16.50;99.90
1468;DHT22;727;48.892;9.544;2023-07-24T01:34:52;16.40;99.90
1468;DHT22;727;48.892;9.544;2023-07-24T01:37:20;16.40;99.90
1468;DHT22;727;48.892;9.544;2023-07-24T01:39:50;16.30;99.90
1468;DHT22;727;48.892;9.544;2023-07-24T01:42:17;16.30;99.90
1468;DHT22;727;48.892;9.544;2023-07-24T01:44:51;16.30;99.90
1468;DHT22;727;48.892;9.544;2023-07-24T01:47:18;16.20;99.90
1468;DHT22;727;48.892;9.544;2023-07-24T01:49:44;16.20;99.90
1468;DHT22;727;48.892;9.544;2023-07-24T01:52:11;16.10;99.90
1468;DHT22;727;48.892;9.544;2023-07-24T01:54:38;16.10;99.90
1468;DHT22;727;48.892;9.544;2023-07-24T01:57:05;16.00;99.90
1468;DHT22;727;48.892;9.544;2023-07-24T01:59:32;15.90;99.90
1468;DHT22;727;48.892;9.544;2023-07-24T02:02:00;15.90;99.90
1468;DHT22;727;48.892;9.544;2023-07-24T02:04:27;15.90;99.90
1468;DHT22;727;48.892;9.544;2023-07-24T02:06:54;15.90;99.90
1468;DHT22;727;48.892;9.544;2023-07-24T02:09:20;15.80;99.90
1468;DHT22;727;48.892;9.544;2023-07-24T02:11:47;15.80;99.90
1468;DHT22;727;48.892;9.544;2023-07-24T02:14:14;15.80;99.90
1468;DHT22;727;48.892;9.544;2023-07-24T02:16:42;15.80;99.90
1468;DHT22;727;48.892;9.544;2023-07-24T02:19:10;15.80;99.90
1468;DHT22;727;48.892;9.544;2023-07-24T02:21:37;15.70;99.90
1468;DHT22;727;48.892;9.544;2023-07-24T02:24:06;15.70;99.90
1468;DHT22;727;48.892;9.544;2023-07-24T02:26:32;15.80;99.90
1468;DHT22;727;48.892;9.544;2023-07-24T02:28:59;15.70;99.90
1468;DHT22;727;48.892;9.544;2023-07-24T02:31:26;15.60;99.90
1468;DHT22;727;48.892;9.544;2023-07-24T02:33:53;15.60;99.90
1468;DHT22;727;48.892;9.544;2023-07-24T02:36:21;15.60;99.90
1468;DHT22;727;48.892;9.544;2023-07-24T02:38:47;15.60;99.90
1468;DHT22;727;48.892;9.544;2023-07-24T02:41:16;15.60;99.90
1468;DHT22;727;48.892;9.544;2023-07-24T02:43:43;15.50;99.90
1468;DHT22;727;48.892;9.544;2023-07-24T02:46:10;15.50;99.90
1468;DHT22;727;48.892;9.544;2023-07-24T02:48:36;15.50;99.90
1468;DHT22;727;48.892;9.544;2023-07-24T02:51:03;15.50;99.90
1468;DHT22;727;48.892;9.544;2023-07-24T02:53:31;15.50;99.90
1468;DHT22;727;48.892;9.544;2023-07-24T02:55:58;15.50;99.90
1468;DHT22;727;48.892;9.544;2023-07-24T02:58:25;15.50;99.90
1468;DHT22;727;48.892;9.544;2023-07-24T03:00:51;15.50;99.90
1468;DHT22;727;48.892;9.544;2023-07-24T03:03:18;15.40;99.90
1468;DHT22;727;48.892;9.544;2023-07-24T03:05:45;15.40;99.90
1468;DHT22;727;48.892;9.544;2023-07-24T03:08:12;15.30;99.90
1468;DHT22;727;48.892;9.544;2023-07-24T03:10:41;15.30;99.90
1468;DHT22;727;48.892;9.544;2023-07-24T03:13:08;15.30;99.90
1468;DHT22;727;48.892;9.544;2023-07-24T03:15:35;15.30;99.90
1468;DHT22;727;48.892;9.544;2023-07-24T03:18:01;15.30;99.90
1468;DHT22;727;48.892;9.544;2023-07-24T03:20:28;15.30;99.90
1468;DHT22;727;48.892;9.544;2023-07-24T03:22:55;15.30;99.90
1468;DHT22;727;48.892;9.544;2023-07-24T03:25:22;15.30;99.90
1468;DHT22;727;48.892;9.544;2023-07-24T03:27:50;15.30;99.90
1468;DHT22;727;48.892;9.544;2023-07-24T03:30:17;15.30;99.90
1468;DHT22;727;48.892;9.544;2023-07-24T03:32:44;15.30;99.90
1468;DHT22;727;48.892;9.544;2023-07-24T03:35:10;15.20;99.90
1468;DHT22;727;48.892;9.544;2023-07-24T03:37:37;15.20;99.90
1468;DHT22;727;48.892;9.544;2023-07-24T03:40:08;15.20;99.90
1468;DHT22;727;48.892;9.544;2023-07-24T03:42:34;15.20;99.90
1468;DHT22;727;48.892;9.544;2023-07-24T03:45:03;15.20;99.90
1468;DHT22;727;48.892;9.544;2023-07-24T03:47:31;15.30;99.90
1468;DHT22;727;48.892;9.544;2023-07-24T03:49:58;15.20;99.90
1468;DHT22;727;48.892;9.544;2023-07-24T03:52:25;15.20;99.90
1468;DHT22;727;48.892;9.544;2023-07-24T03:54:52;15.30;99.90
1468;DHT22;727;48.892;9.544;2023-07-24T03:57:19;15.20;99.90
1468;DHT22;727;48.892;9.544;2023-07-24T03:59:46;15.20;99.90
1468;DHT22;727;48.892;9.544;2023-07-24T04:02:14;15.20;99.90
1468;DHT22;727;48.892;9.544;2023-07-24T04:04:41;15.30;99.90
1468;DHT22;727;48.892;9.544;2023-07-24T04:07:09;15.30;99.90
1468;DHT22;727;48.892;9.544;2023-07-24T04:09:36;15.30;99.90
1468;DHT22;727;48.892;9.544;2023-07-24T04:12:03;15.40;99.90
1468;DHT22;727;48.892;9.544;2023-07-24T04:14:30;15.60;99.90
1468;DHT22;727;48.892;9.544;2023-07-24T04:16:57;15.70;99.90
1468;DHT22;727;48.892;9.544;2023-07-24T04:19:25;15.70;99.90
1468;DHT22;727;48.892;9.544;2023-07-24T04:21:52;15.80;99.90
1468;DHT22;727;48.892;9.544;2023-07-24T04:24:18;15.90;99.90
1468;DHT22;727;48.892;9.544;2023-07-24T04:26:48;15.90;99.90
1468;DHT22;727;48.892;9.544;2023-07-24T04:29:14;16.00;99.90
1468;DHT22;727;48.892;9.544;2023-07-24T04:31:41;16.10;99.90
1468;DHT22;727;48.892;9.544;2023-07-24T04:34:08;16.40;99.90
1468;DHT22;727;48.892;9.544;2023-07-24T04:36:36;16.60;99.90
1468;DHT22;727;48.892;9.544;2023-07-24T04:39:03;16.80;99.90
1468;DHT22;727;48.892;9.544;2023-07-24T04:41:29;16.90;99.90
1468;DHT22;727;48.892;9.544;2023-07-24T04:43:56;17.10;99.90
1468;DHT22;727;48.892;9.544;2023-07-24T04:46:23;17.40;99.90
1468;DHT22;727;48.892;9.544;2023-07-24T04:48:50;17.50;99.90
1468;DHT22;727;48.892;9.544;2023-07-24T04:51:16;17.40;99.90
1468;DHT22;727;48.892;9.544;2023-07-24T04:53:45;17.40;99.90
1468;DHT22;727;48.892;9.544;2023-07-24T04:56:12;17.40;99.90
1468;DHT22;727;48.892;9.544;2023-07-24T04:58:38;17.50;99.90
1468;DHT22;727;48.892;9.544;2023-07-24T05:01:05;18.10;99.90
1468;DHT22;727;48.892;9.544;2023-07-24T05:03:32;18.50;99.90
1468;DHT22;727;48.892;9.544;2023-07-24T05:05:59;18.60;99.90
1468;DHT22;727;48.892;9.544;2023-07-24T05:08:25;18.60;99.90
1468;DHT22;727;48.892;9.544;2023-07-24T05:10:58;18.50;99.90
1468;DHT22;727;48.892;9.544;2023-07-24T05:13:25;18.40;99.90
1468;DHT22;727;48.892;9.544;2023-07-24T05:15:52;18.30;99.90
1468;DHT22;727;48.892;9.544;2023-07-24T05:18:19;18.20;99.90
1468;DHT22;727;48.892;9.544;2023-07-24T05:20:47;18.20;99.90
1468;DHT22;727;48.892;9.544;2023-07-24T05:23:14;18.20;99.90
1468;DHT22;727;48.892;9.544;2023-07-24T05:25:41;18.30;99.90
1468;DHT22;727;48.892;9.544;2023-07-24T05:28:09;18.40;99.90
1468;DHT22;727;48.892;9.544;2023-07-24T05:30:36;18.60;99.90
1468;DHT22;727;48.892;9.544;2023-07-24T05:33:03;19.20;99.90
1468;DHT22;727;48.892;9.544;2023-07-24T05:35:30;20.20;99.90
1468;DHT22;727;48.892;9.544;2023-07-24T05:37:56;20.80;99.90
1468;DHT22;727;48.892;9.544;2023-07-24T05:40:23;21.00;99.90
1468;DHT22;727;48.892;9.544;2023-07-24T05:42:50;21.10;99.90
1468;DHT22;727;48.892;9.544;2023-07-24T05:45:18;21.00;99.90
1468;DHT22;727;48.892;9.544;2023-07-24T05:47:45;20.80;99.90
1468;DHT22;727;48.892;9.544;2023-07-24T05:50:12;20.50;99.90
1468;DHT22;727;48.892;9.544;2023-07-24T05:52:39;20.40;99.90
1468;DHT22;727;48.892;9.544;2023-07-24T05:55:07;20.20;99.90
1468;DHT22;727;48.892;9.544;2023-07-24T05:57:34;20.00;99.90
1468;DHT22;727;48.892;9.544;2023-07-24T06:00:01;19.90;99.90
1468;DHT22;727;48.892;9.544;2023-07-24T06:02:30;19.80;99.90
1468;DHT22;727;48.892;9.544;2023-07-24T06:04:56;19.70;99.90
1468;DHT22;727;48.892;9.544;2023-07-24T06:07:23;19.60;99.90
1468;DHT22;727;48.892;9.544;2023-07-24T06:09:50;19.50;99.90
1468;DHT22;727;48.892;9.544;2023-07-24T06:12:17;19.30;99.90
1468;DHT22;727;48.892;9.544;2023-07-24T06:14:43;19.10;99.90
1468;DHT22;727;48.892;9.544;2023-07-24T06:17:10;19.00;99.90
1468;DHT22;727;48.892;9.544;2023-07-24T06:19:38;18.90;99.90
1468;DHT22;727;48.892;9.544;2023-07-24T06:22:06;18.90;99.90
1468;DHT22;727;48.892;9.544;2023-07-24T06:24:33;18.80;99.90
1468;DHT22;727;48.892;9.544;2023-07-24T06:27:00;18.80;99.90
1468;DHT22;727;48.892;9.544;2023-07-24T06:29:26;18.80;99.90
1468;DHT22;727;48.892;9.544;2023-07-24T06:31:53;18.80;99.90
1468;DHT22;727;48.892;9.544;2023-07-24T06:34:20;18.80;99.90
1468;DHT22;727;48.892;9.544;2023-07-24T06:36:48;18.80;99.90
1468;DHT22;727;48.892;9.544;2023-07-24T06:39:15;18.70;99.90
1468;DHT22;727;48.892;9.544;2023-07-24T06:41:42;18.80;99.90
1468;DHT22;727;48.892;9.544;2023-07-24T06:44:09;18.80;99.90
1468;DHT22;727;48.892;9.544;2023-07-24T06:46:35;18.80;99.90
1468;DHT22;727;48.892;9.544;2023-07-24T06:49:02;18.90;99.90
1468;DHT22;727;48.892;9.544;2023-07-24T06:51:29;19.00;99.90
1468;DHT22;727;48.892;9.544;2023-07-24T06:53:58;19.10;99.90
1468;DHT22;727;48.892;9.544;2023-07-24T06:56:25;19.10;99.90
1468;DHT22;727;48.892;9.544;2023-07-24T06:58:51;19.30;99.90
1468;DHT22;727;48.892;9.544;2023-07-24T07:01:18;19.20;99.90
1468;DHT22;727;48.892;9.544;2023-07-24T07:03:45;19.30;99.90
1468;DHT22;727;48.892;9.544;2023-07-24T07:06:12;19.40;99.90
1468;DHT22;727;48.892;9.544;2023-07-24T07:08:39;19.50;99.90
1468;DHT22;727;48.892;9.544;2023-07-24T07:11:07;19.60;99.90
1468;DHT22;727;48.892;9.544;2023-07-24T07:13:34;19.70;99.90
1468;DHT22;727;48.892;9.544;2023-07-24T07:16:00;19.80;99.90
1468;DHT22;727;48.892;9.544;2023-07-24T07:18:28;19.80;99.90
1468;DHT22;727;48.892;9.544;2023-07-24T07:20:54;19.90;99.90
1468;DHT22;727;48.892;9.544;2023-07-24T07:23:21;20.00;99.90
1468;DHT22;727;48.892;9.544;2023-07-24T07:25:48;20.10;99.90
1468;DHT22;727;48.892;9.544;2023-07-24T07:28:17;20.00;99.90
1468;DHT22;727;48.892;9.544;2023-07-24T07:30:44;20.10;99.90
1468;DHT22;727;48.892;9.544;2023-07-24T07:33:11;20.30;99.90
1468;DHT22;727;48.892;9.544;2023-07-24T07:35:38;20.40;99.90
1468;DHT22;727;48.892;9.544;2023-07-24T07:38:04;20.60;99.90
1468;DHT22;727;48.892;9.544;2023-07-24T07:40:31;20.80;99.90
1468;DHT22;727;48.892;9.544;2023-07-24T07:42:59;21.00;99.90
1468;DHT22;727;48.892;9.544;2023-07-24T07:45:27;21.10;99.90
1468;DHT22;727;48.892;9.544;2023-07-24T07:47:54;21.40;99.90
1468;DHT22;727;48.892;9.544;2023-07-24T07:50:21;21.50;99.90
1468;DHT22;727;48.892;9.544;2023-07-24T07:52:49;21.60;99.90
1468;DHT22;727;48.892;9.544;2023-07-24T07:55:16;21.80;99.90
1468;DHT22;727;48.892;9.544;2023-07-24T07:57:43;21.80;99.90
1468;DHT22;727;48.892;9.544;2023-07-24T08:00:10;21.80;99.90
1468;DHT22;727;48.892;9.544;2023-07-24T08:02:39;21.90;99.90
1468;DHT22;727;48.892;9.544;2023-07-24T08:05:07;22.10;99.90
1468;DHT22;727;48.892;9.544;2023-07-24T08:07:34;22.30;99.90
1468;DHT22;727;48.892;9.544;2023-07-24T08:10:00;22.70;99.90
1468;DHT22;727;48.892;9.544;2023-07-24T08:12:27;22.90;99.90
1468;DHT22;727;48.892;9.544;2023-07-24T08:14:55;23.10;99.90
1468;DHT22;727;48.892;9.544;2023-07-24T08:17:21;23.10;99.90
1468;DHT22;727;48.892;9.544;2023-07-24T08:19:50;23.10;99.90
1468;DHT22;727;48.892;9.544;2023-07-24T08:22:16;23.00;99.90
1468;DHT22;727;48.892;9.544;2023-07-24T08:24:45;22.90;99.90
1468;DHT22;727;48.892;9.544;2023-07-24T08:27:12;22.70;99.90
1468;DHT22;727;48.892;9.544;2023-07-24T08:29:39;22.40;99.90
1468;DHT22;727;48.892;9.544;2023-07-24T08:32:06;22.30;99.90
1468;DHT22;727;48.892;9.544;2023-07-24T08:34:33;22.10;99.90
1468;DHT22;727;48.892;9.544;2023-07-24T08:37:01;21.80;99.90
1468;DHT22;727;48.892;9.544;2023-07-24T08:39:28;21.50;99.90
1468;DHT22;727;48.892;9.544;2023-07-24T08:41:56;21.30;99.90
1468;DHT22;727;48.892;9.544;2023-07-24T08:44:23;21.10;99.90
1468;DHT22;727;48.892;9.544;2023-07-24T08:46:51;20.90;99.90
1468;DHT22;727;48.892;9.544;2023-07-24T08:49:18;20.80;99.90
1468;DHT22;727;48.892;9.544;2023-07-24T08:51:45;20.70;99.90
1468;DHT22;727;48.892;9.544;2023-07-24T08:54:14;20.70;99.90
1468;DHT22;727;48.892;9.544;2023-07-24T08:56:42;20.70;99.90
1468;DHT22;727;48.892;9.544;2023-07-24T08:59:12;20.70;99.90
1468;DHT22;727;48.892;9.544;2023-07-24T09:01:39;20.80;99.90
1468;DHT22;727;48.892;9.544;2023-07-24T09:04:06;20.90;99.90
1468;DHT22;727;48.892;9.544;2023-07-24T09:06:33;21.00;99.90
1468;DHT22;727;48.892;9.544;2023-07-24T09:09:00;21.20;99.90
1468;DHT22;727;48.892;9.544;2023-07-24T09:11:28;21.20;99.90
1468;DHT22;727;48.892;9.544;2023-07-24T09:13:55;21.10;99.90
1468;DHT22;727;48.892;9.544;2023-07-24T09:16:22;21.00;99.90
1468;DHT22;727;48.892;9.544;2023-07-24T09:18:50;20.90;99.90
1468;DHT22;727;48.892;9.544;2023-07-24T09:21:27;21.10;99.90
1468;DHT22;727;48.892;9.544;2023-07-24T09:23:54;21.10;99.90
1468;DHT22;727;48.892;9.544;2023-07-24T09:26:21;21.10;99.90
1468;DHT22;727;48.892;9.544;2023-07-24T09:28:53;21.30;99.90
1468;DHT22;727;48.892;9.544;2023-07-24T09:31:20;21.30;99.90
1468;DHT22;727;48.892;9.544;2023-07-24T09:33:47;21.50;99.90
1468;DHT22;727;48.892;9.544;2023-07-24T09:36:15;21.70;99.90
1468;DHT22;727;48.892;9.544;2023-07-24T09:38:42;21.90;99.90
1468;DHT22;727;48.892;9.544;2023-07-24T09:41:08;22.20;99.90
1468;DHT22;727;48.892;9.544;2023-07-24T09:43:37;22.60;99.90
1468;DHT22;727;48.892;9.544;2023-07-24T09:46:06;23.00;99.90
1468;DHT22;727;48.892;9.544;2023-07-24T09:48:33;23.40;99.90
1468;DHT22;727;48.892;9.544;2023-07-24T09:51:01;23.60;99.90
1468;DHT22;727;48.892;9.544;2023-07-24T09:53:33;23.70;99.90
1468;DHT22;727;48.892;9.544;2023-07-24T09:56:03;23.70;99.90
1468;DHT22;727;48.892;9.544;2023-07-24T09:58:32;23.70;99.90
1468;DHT22;727;48.892;9.544;2023-07-24T10:01:02;23.60;99.90
1468;DHT22;727;48.892;9.544;2023-07-24T10:03:34;23.50;99.90
1468;DHT22;727;48.892;9.544;2023-07-24T10:06:01;23.20;99.90
1468;DHT22;727;48.892;9.544;2023-07-24T10:08:28;23.00;99.90
1468;DHT22;727;48.892;9.544;2023-07-24T10:10:55;22.80;99.90
1468;DHT22;727;48.892;9.544;2023-07-24T10:13:22;22.60;99.90
1468;DHT22;727;48.892;9.544;2023-07-24T10:15:49;22.40;99.90
1468;DHT22;727;48.892;9.544;2023-07-24T10:18:16;22.20;99.90
1468;DHT22;727;48.892;9.544;2023-07-24T10:20:45;22.10;99.90
1468;DHT22;727;48.892;9.544;2023-07-24T10:23:17;22.00;99.90
1468;DHT22;727;48.892;9.544;2023-07-24T10:25:45;22.00;99.90
1468;DHT22;727;48.892;9.544;2023-07-24T10:28:12;21.90;99.90
1468;DHT22;727;48.892;9.544;2023-07-24T10:30:42;21.80;99.90
1468;DHT22;727;48.892;9.544;2023-07-24T10:33:10;21.70;99.90
1468;DHT22;727;48.892;9.544;2023-07-24T10:35:38;21.60;99.90
1468;DHT22;727;48.892;9.544;2023-07-24T10:38:07;21.60;99.90
1468;DHT22;727;48.892;9.544;2023-07-24T10:40:34;21.50;99.90
1468;DHT22;727;48.892;9.544;2023-07-24T10:43:04;21.40;99.90
1468;DHT22;727;48.892;9.544;2023-07-24T10:45:47;21.40;99.90
1468;DHT22;727;48.892;9.544;2023-07-24T10:48:14;21.20;99.90
1468;DHT22;727;48.892;9.544;2023-07-24T10:50:43;21.20;99.90
1468;DHT22;727;48.892;9.544;2023-07-24T10:53:14;21.20;99.90
1468;DHT22;727;48.892;9.544;2023-07-24T10:55:42;21.10;99.90
1468;DHT22;727;48.892;9.544;2023-07-24T10:58:09;21.10;99.90
1468;DHT22;727;48.892;9.544;2023-07-24T11:00:37;21.00;99.90
1468;DHT22;727;48.892;9.544;2023-07-24T11:03:05;21.00;99.90
1468;DHT22;727;48.892;9.544;2023-07-24T11:05:33;20.90;99.90
1468;DHT22;727;48.892;9.544;2023-07-24T11:08:00;20.90;99.90
1468;DHT22;727;48.892;9.544;2023-07-24T11:10:28;20.90;99.90
1468;DHT22;727;48.892;9.544;2023-07-24T11:12:56;20.90;99.90
1468;DHT22;727;48.892;9.544;2023-07-24T11:15:26;20.80;99.90
1468;DHT22;727;48.892;9.544;2023-07-24T11:17:53;20.80;99.90
1468;DHT22;727;48.892;9.544;2023-07-24T11:20:20;20.70;99.90
1468;DHT22;727;48.892;9.544;2023-07-24T11:22:47;20.70;99.90
1468;DHT22;727;48.892;9.544;2023-07-24T11:25:14;20.70;99.90
1468;DHT22;727;48.892;9.544;2023-07-24T11:27:43;20.60;99.90
1468;DHT22;727;48.892;9.544;2023-07-24T11:30:11;20.50;99.90
1468;DHT22;727;48.892;9.544;2023-07-24T11:32:39;20.60;99.90
1468;DHT22;727;48.892;9.544;2023-07-24T11:35:07;20.50;99.90
1468;DHT22;727;48.892;9.544;2023-07-24T11:37:35;20.40;99.90
1468;DHT22;727;48.892;9.544;2023-07-24T11:40:04;20.40;99.90
1468;DHT22;727;48.892;9.544;2023-07-24T11:42:37;20.50;99.90
1468;DHT22;727;48.892;9.544;2023-07-24T11:45:07;20.60;99.90
1468;DHT22;727;48.892;9.544;2023-07-24T11:47:42;20.60;99.90
1468;DHT22;727;48.892;9.544;2023-07-24T11:50:09;20.60;99.90
1468;DHT22;727;48.892;9.544;2023-07-24T11:52:40;20.60;99.90
1468;DHT22;727;48.892;9.544;2023-07-24T11:55:09;20.80;99.90
1468;DHT22;727;48.892;9.544;2023-07-24T11:57:36;21.10;99.90
1468;DHT22;727;48.892;9.544;2023-07-24T12:00:05;21.30;99.90
1468;DHT22;727;48.892;9.544;2023-07-24T12:02:33;21.60;99.90
1468;DHT22;727;48.892;9.544;2023-07-24T12:05:00;22.10;99.90
1468;DHT22;727;48.892;9.544;2023-07-24T12:07:32;22.60;99.90
1468;DHT22;727;48.892;9.544;2023-07-24T12:09:59;22.90;99.90
1468;DHT22;727;48.892;9.544;2023-07-24T12:12:37;23.10;99.90
1468;DHT22;727;48.892;9.544;2023-07-24T12:15:06;23.00;99.90
1468;DHT22;727;48.892;9.544;2023-07-24T12:17:33;22.90;99.90
1468;DHT22;727;48.892;9.544;2023-07-24T12:20:00;22.70;99.90
1468;DHT22;727;48.892;9.544;2023-07-24T12:22:27;22.30;99.90
1468;DHT22;727;48.892;9.544;2023-07-24T12:24:54;22.00;99.90
1468;DHT22;727;48.892;9.544;2023-07-24T12:27:21;21.80;99.90
1468;DHT22;727;48.892;9.544;2023-07-24T12:29:48;21.70;99.90
1468;DHT22;727;48.892;9.544;2023-07-24T12:32:16;21.70;99.90
1468;DHT22;727;48.892;9.544;2023-07-24T12:34:44;21.60;99.90
1468;DHT22;727;48.892;9.544;2023-07-24T12:37:10;21.70;99.90
1468;DHT22;727;48.892;9.544;2023-07-24T12:39:38;21.70;99.90
1468;DHT22;727;48.892;9.544;2023-07-24T12:42:05;21.70;99.90
1468;DHT22;727;48.892;9.544;2023-07-24T12:44:33;21.80;99.90
1468;DHT22;727;48.892;9.544;2023-07-24T12:46:59;21.90;99.90
1468;DHT22;727;48.892;9.544;2023-07-24T12:49:28;22.10;99.90
1468;DHT22;727;48.892;9.544;2023-07-24T12:51:54;22.40;99.90
1468;DHT22;727;48.892;9.544;2023-07-24T12:54:23;22.60;99.90
1468;DHT22;727;48.892;9.544;2023-07-24T12:56:51;22.90;99.90
1468;DHT22;727;48.892;9.544;2023-07-24T12:59:18;23.00;99.90
1468;DHT22;727;48.892;9.544;2023-07-24T13:01:45;23.20;99.90
1468;DHT22;727;48.892;9.544;2023-07-24T13:04:12;23.20;99.90
1468;DHT22;727;48.892;9.544;2023-07-24T13:06:40;23.20;99.90
1468;DHT22;727;48.892;9.544;2023-07-24T13:09:07;23.40;99.90
1468;DHT22;727;48.892;9.544;2023-07-24T13:11:34;23.80;99.90
1468;DHT22;727;48.892;9.544;2023-07-24T13:14:02;24.20;99.90
1468;DHT22;727;48.892;9.544;2023-07-24T13:16:29;24.20;99.90
1468;DHT22;727;48.892;9.544;2023-07-24T13:18:56;24.40;99.90
1468;DHT22;727;48.892;9.544;2023-07-24T13:21:23;24.60;99.90
1468;DHT22;727;48.892;9.544;2023-07-24T13:23:51;24.80;99.90
1468;DHT22;727;48.892;9.544;2023-07-24T13:26:18;24.70;99.90
1468;DHT22;727;48.892;9.544;2023-07-24T13:28:45;24.50;99.90
1468;DHT22;727;48.892;9.544;2023-07-24T13:31:13;24.50;99.90
1468;DHT22;727;48.892;9.544;2023-07-24T13:33:41;24.50;99.90
1468;DHT22;727;48.892;9.544;2023-07-24T13:36:08;24.60;99.90
1468;DHT22;727;48.892;9.544;2023-07-24T13:38:35;24.80;99.90
1468;DHT22;727;48.892;9.544;2023-07-24T13:41:03;24.80;99.30
1468;DHT22;727;48.892;9.544;2023-07-24T13:43:33;24.80;99.40
1468;DHT22;727;48.892;9.544;2023-07-24T13:46:00;24.90;99.60
1468;DHT22;727;48.892;9.544;2023-07-24T13:48:30;25.10;98.90
1468;DHT22;727;48.892;9.544;2023-07-24T13:50:57;25.00;98.10
1468;DHT22;727;48.892;9.544;2023-07-24T13:53:24;24.80;98.90
1468;DHT22;727;48.892;9.544;2023-07-24T13:55:51;24.60;99.40
1468;DHT22;727;48.892;9.544;2023-07-24T13:58:19;24.60;99.30
1468;DHT22;727;48.892;9.544;2023-07-24T14:00:46;24.50;99.20
1468;DHT22;727;48.892;9.544;2023-07-24T14:03:13;24.70;99.10
1468;DHT22;727;48.892;9.544;2023-07-24T14:05:40;24.80;99.00
1468;DHT22;727;48.892;9.544;2023-07-24T14:08:08;24.70;98.90
1468;DHT22;727;48.892;9.544;2023-07-24T14:10:34;24.80;99.00
1468;DHT22;727;48.892;9.544;2023-07-24T14:13:02;25.10;98.90
1468;DHT22;727;48.892;9.544;2023-07-24T14:15:30;25.20;98.50
1468;DHT22;727;48.892;9.544;2023-07-24T14:17:57;25.30;97.60
1468;DHT22;727;48.892;9.544;2023-07-24T14:20:24;25.50;97.40
1468;DHT22;727;48.892;9.544;2023-07-24T14:22:51;25.80;97.10
1468;DHT22;727;48.892;9.544;2023-07-24T14:25:17;26.00;95.70
1468;DHT22;727;48.892;9.544;2023-07-24T14:27:44;26.40;95.50
1468;DHT22;727;48.892;9.544;2023-07-24T14:30:11;26.50;95.10
1468;DHT22;727;48.892;9.544;2023-07-24T14:32:39;26.30;95.10
1468;DHT22;727;48.892;9.544;2023-07-24T14:35:07;25.90;95.40
1468;DHT22;727;48.892;9.544;2023-07-24T14:37:33;25.60;95.70
1468;DHT22;727;48.892;9.544;2023-07-24T14:40:00;25.50;96.10
1468;DHT22;727;48.892;9.544;2023-07-24T14:42:28;25.40;96.30
1468;DHT22;727;48.892;9.544;2023-07-24T14:44:54;25.40;96.30
1468;DHT22;727;48.892;9.544;2023-07-24T14:47:27;25.40;95.80
1468;DHT22;727;48.892;9.544;2023-07-24T14:49:56;25.30;96.30
1468;DHT22;727;48.892;9.544;2023-07-24T14:52:23;25.20;96.00
1468;DHT22;727;48.892;9.544;2023-07-24T14:54:50;25.30;96.00
1468;DHT22;727;48.892;9.544;2023-07-24T14:57:17;25.30;95.80
1468;DHT22;727;48.892;9.544;2023-07-24T14:59:43;25.40;95.70
1468;DHT22;727;48.892;9.544;2023-07-24T15:02:10;25.60;95.20
1468;DHT22;727;48.892;9.544;2023-07-24T15:04:37;25.40;95.00
1468;DHT22;727;48.892;9.544;2023-07-24T15:07:05;25.40;95.30
1468;DHT22;727;48.892;9.544;2023-07-24T15:09:32;25.10;95.10
1468;DHT22;727;48.892;9.544;2023-07-24T15:11:59;24.90;95.90
1468;DHT22;727;48.892;9.544;2023-07-24T15:14:26;24.70;96.10
1468;DHT22;727;48.892;9.544;2023-07-24T15:16:52;24.40;95.70
1468;DHT22;727;48.892;9.544;2023-07-24T15:19:19;24.50;96.30
1468;DHT22;727;48.892;9.544;2023-07-24T15:21:46;24.70;95.90
1468;DHT22;727;48.892;9.544;2023-07-24T15:24:14;24.80;94.70
1468;DHT22;727;48.892;9.544;2023-07-24T15:26:43;24.70;95.00
1468;DHT22;727;48.892;9.544;2023-07-24T15:29:10;24.70;94.90
1468;DHT22;727;48.892;9.544;2023-07-24T15:31:37;24.70;94.70
1468;DHT22;727;48.892;9.544;2023-07-24T15:34:06;24.80;95.00
1468;DHT22;727;48.892;9.544;2023-07-24T15:36:34;24.70;95.00
1468;DHT22;727;48.892;9.544;2023-07-24T15:39:01;24.60;95.20
1468;DHT22;727;48.892;9.544;2023-07-24T15:41:30;24.20;95.20
1468;DHT22;727;48.892;9.544;2023-07-24T15:43:57;23.90;95.50
1468;DHT22;727;48.892;9.544;2023-07-24T15:46:24;23.70;96.00
1468;DHT22;727;48.892;9.544;2023-07-24T15:48:56;23.50;96.20
1468;DHT22;727;48.892;9.544;2023-07-24T15:51:26;23.40;96.40
1468;DHT22;727;48.892;9.544;2023-07-24T15:53:54;23.40;96.80
1468;DHT22;727;48.892;9.544;2023-07-24T15:56:21;23.20;97.10
1468;DHT22;727;48.892;9.544;2023-07-24T15:58:50;23.10;96.90
1468;DHT22;727;48.892;9.544;2023-07-24T16:01:17;22.90;97.00
1468;DHT22;727;48.892;9.544;2023-07-24T16:03:44;22.90;97.80
1468;DHT22;727;48.892;9.544;2023-07-24T16:06:11;22.70;97.30
1468;DHT22;727;48.892;9.544;2023-07-24T16:08:40;22.70;97.70
1468;DHT22;727;48.892;9.544;2023-07-24T16:11:08;22.70;98.80
1468;DHT22;727;48.892;9.544;2023-07-24T16:13:36;22.60;99.90
1468;DHT22;727;48.892;9.544;2023-07-24T16:16:18;22.60;99.90
1468;DHT22;727;48.892;9.544;2023-07-24T16:18:45;22.60;99.90